Meteo Giornale » Osservazioni meteo Stati Uniti (USA) » Vance-Enid
ore: 20:55 - Osservazioni Meteo Vance-Enid
Lat. 36° 20' N Lon. 97° 55' W Alt. 398 metri s.l.m.
33 °C
Sereno
Temp. 24 Ore
25 °C
40 °C
Sud/Sud-Est
16.7 Km/h
Dew point 14 °C
Umidità 31 %
Visibilità 10 Km
Il sole sorge alle ore 07:02
Il sole tramonta alle ore 20:01
| Data e Ora | Cielo e Fenomeni | T °C | DP °C | Um. % | Pres. hPa | Vis. km | Vento km/h | |
|---|---|---|---|---|---|---|---|---|
| Oggi h: 20:55 | Sereno | 33 | 14 | 31 | 1011 | 10 | S/SE 16.7 | |
| Oggi h: 19:55 | Sereno | 35 | 14 | 28 | 1011 | 10 | SE 22.2 | |
| Oggi h: 18:55 | Sereno | 37 | 14 | 25 | 1011 | 10 | S/SE 25.9 | |
| Oggi h: 18:17 | Sereno | 38 | 14 | 24 | 1011 | 10 | S/SE 25.9 | |
| Oggi h: 17:55 | Sereno | 38 | 14 | 24 | 1011 | 10 | S 25.9 | |
| Oggi h: 17:32 | Sereno | 39 | 14 | 22 | 1011 | 10 | S 24 | |
| Oggi h: 16:55 | Sereno | 39 | 15 | 24 | 1011 | 10 | S 27.8 | |
| Oggi h: 16:30 | Sereno | 40 | 15 | 23 | 1011 | 10 | S 25.9 | |
| Oggi h: 16:05 | Sereno | 40 | 15 | 23 | 1011 | 10 | S 24 | |
| Oggi h: 16:03 | Sereno | 40 | 15 | 23 | 1011 | 10 | SE 25.9 | |
| Oggi h: 15:55 | Sereno | 40 | 15 | 23 | 1011 | 10 | S/SE 24 | |
| Oggi h: 15:26 | Sereno | 40 | 14 | 21 | 1012 | 10 | S 22.2 | |
| Oggi h: 15:14 | Sereno | 40 | 14 | 21 | 1012 | 10 | S 27.8 | |
| Oggi h: 15:03 | Sereno | 40 | 14 | 21 | 1012 | 10 | S 22.2 | |
| Oggi h: 14:56 | Sereno | 39 | 14 | 22 | 1012 | 10 | S/SO 31.5 | |
| Oggi h: 14:55 | Sereno | 39 | 14 | 22 | 1012 | 10 | S/SE 27.8 | |
| Oggi h: 14:29 | Sereno | 40 | 15 | 23 | 1012 | 10 | S 25.9 | |
| Oggi h: 14:12 | Sereno | 40 | 15 | 23 | 1012 | 10 | S 27.8 | |
| Oggi h: 13:55 | Sereno | 40 | 15 | 23 | 1012 | 10 | S 20.3 | |
| Oggi h: 13:21 | Sereno | 39 | 15 | 24 | 1013 | 10 | S 29.6 | |
| Oggi h: 12:55 | Sereno | 39 | 16 | 26 | 1013 | 10 | S 24 | |
| Oggi h: 11:55 | Sereno | 38 | 16 | 27 | 1014 | 10 | S/SO 27.8 | |
| Oggi h: 10:55 | Sereno | 35 | 17 | 34 | 1014 | 10 | S 27.8 | |
| Oggi h: 09:55 | Sereno | 33 | 17 | 38 | 1014 | 10 | S 29.6 | |
| Oggi h: 08:55 | Sereno | 29 | 16 | 45 | 1014 | 10 | S/SE 20.3 | |
| Oggi h: 07:55 | Sereno | 26 | 15 | 50 | 1014 | 10 | SE 16.7 | |
| Oggi h: 06:55 | Sereno | 25 | 15 | 53 | 1014 | 10 | S/SE 13 | |
| Oggi h: 05:55 | Sereno | 25 | 15 | 53 | 1013 | 10 | S 7.4 | |
| Oggi h: 04:55 | Sereno | 26 | 14 | 47 | 1012 | 10 | S 13 | |
| Oggi h: 03:55 | Sereno | 27 | 15 | 47 | 1012 | 10 | S 18.5 | |
| Oggi h: 02:55 | Sereno | 27 | 15 | 47 | 1012 | 10 | S 14.8 | |
| Oggi h: 01:55 | Sereno | 29 | 15 | 42 | 1012 | 10 | S 20.3 | |
| Oggi h: 00:55 | Sereno | 30 | 15 | 40 | 1011 | 10 | S/SE 24 | |
| Ieri h: 23:55 | Sereno | 31 | 15 | 37 | 1011 | 10 | S/SE 27.8 | |
| Ieri h: 22:55 | Sereno | 31 | 14 | 35 | 1011 | 10 | SE 20.3 | |



